NCAR-RAP Real-Time Weather Data

Output produced by METARs form (26 May 2022  09:03 UTC)
found at http://weather.rap.ucar.edu/surface/
 
KPIT 260751Z 14005KT 10SM FEW250 16/12 A3009 RMK AO2 SLP192 T01560122
KPIT 260651Z 15005KT 10SM SCT250 16/12 A3011 RMK AO2 SLP197 T01560122
KPIT 260551Z 13006KT 10SM SCT250 16/12 A3010 RMK AO2 SLP196 T01610122 10211 20161 57008
KPIT 260451Z 14008KT 10SM BKN250 17/12 A3012 RMK AO2 SLP201 T01670122 402390122
KPIT 260351Z 14010KT 10SM BKN250 17/12 A3012 RMK AO2 SLP202 T01720122
KPIT 260251Z 13012KT 10SM FEW150 BKN250 18/12 A3013 RMK AO2 SLP206 T01780122 53003
KPIT 260151Z 13012G19KT 10SM SCT150 OVC250 18/12 A3013 RMK AO2 SLP205 T01830122
KPIT 260051Z 12011KT 10SM FEW150 OVC250 19/12 A3012 RMK AO2 SLP205 T01940122
KPIT 252351Z 13010KT 10SM FEW120 SCT170 OVC240 21/12 A3012 RMK AO2 SLP204 T02110122 10239 20211 57005
KPIT 252251Z 14012KT 10SM FEW120 SCT150 OVC200 23/12 A3012 RMK AO2 SLP205 T02280122
KPIT 252151Z 15009KT 10SM SCT130 BKN180 OVC240 23/12 A3014 RMK AO2 SLP209 T02330122
KPIT 252051Z 15014KT 10SM SCT100 BKN140 OVC200 23/12 A3014 RMK AO2 SLP209 T02330117 58016
KPIT 251951Z 14011KT 10SM BKN100 OVC200 23/11 A3015 RMK AO2 SLP214 T02280111
KPIT 251851Z 15012G18KT 10SM SCT120 BKN150 OVC250 23/11 A3017 RMK AO2 SLP221 T02280106
KPIT 251751Z 11013KT 10SM FEW060 SCT150 BKN250 22/11 A3019 RMK AO2 SLP225 T02220106 10228 20144 58016
KPIT 251651Z 10014KT 10SM FEW110 SCT170 BKN250 21/11 A3022 RMK AO2 SLP236 T02110106
KPIT 251551Z 10010G17KT 10SM FEW035 SCT110 BKN170 20/11 A3024 RMK AO2 SLP242 T02000106
KPIT 251451Z 11012KT 10SM FEW032 SCT110 BKN170 18/12 A3024 RMK AO2 SLP243 T01830117 50001
KPIT 251351Z 12010KT 10SM BKN130 BKN250 17/12 A3024 RMK AO2 SLP245 T01670117
KPIT 251251Z 11009KT 10SM BKN120 BKN250 16/12 A3025 RMK AO2 SLP247 T01560117
KPIT 251151Z 11008KT 10SM BKN120 BKN250 14/11 A3023 RMK AO2 SLP243 T01440111 10144 20122 53004
KPIT 251051Z 11004KT 10SM SCT100 SCT250 12/11 A3023 RMK AO2 SLP243 T01220111
KPIT 250951Z 08005KT 10SM SCT120 BKN250 12/11 A3022 RMK AO2 SLP239 T01220111
KPIT 250851Z 10004KT 10SM FEW030 BKN250 13/11 A3022 RMK AO2 SLP238 T01280111 51001
KPIT 250751Z 12003KT 10SM FEW250 13/11 A3021 RMK AO2 SLP236 T01280111
KPIT 250651Z 13003KT 10SM SCT250 14/11 A3023 RMK AO2 SLP240 T01390111
KPIT 250551Z 12005KT 10SM FEW035 SCT250 14/11 A3022 RMK AO2 SLP237 T01390111 10183 20139 58002
KPIT 250451Z 11005KT 10SM SCT035 14/12 A3023 RMK AO2 SLP241 T01440117 402000100
KPIT 250351Z 13007KT 10SM BKN034 16/12 A3022 RMK AO2 SLP238 T01610117
KPIT 250251Z 13009KT 10SM BKN032 17/12 A3022 RMK AO2 SLP239 T01720117 53008
KPIT 250151Z 11005KT 10SM OVC036 17/12 A3021 RMK AO2 SLP235 T01720122
KPIT 250051Z 10008KT 10SM OVC038 18/12 A3020 RMK AO2 SLP232 T01780122
KPIT 242351Z 08006KT 10SM OVC034 18/13 A3020 RMK AO2 SLP233 T01830128 10200 20183 51011
KPIT 242251Z 09007KT 10SM OVC033 18/13 A3020 RMK AO2 SLP231 T01830128
KPIT 242151Z 09004KT 10SM OVC032 19/13 A3019 RMK AO2 SLP228 T01890128
KPIT 242051Z 12007KT 10SM BKN034 OVC055 19/13 A3017 RMK AO2 SLP221 T01940128 56009
KPIT 241951Z 10006KT 10SM BKN032 OVC050 19/12 A3018 RMK AO2 SLP224 T01940122
KPIT 241851Z 12007KT 10SM BKN033 OVC060 19/12 A3018 RMK AO2 SLP225 T01940122
KPIT 241751Z 12006KT 10SM BKN031 OVC055 19/12 A3019 RMK AO2 SLP230 T01940117 10194 20122 53001
KPIT 241651Z 10009KT 10SM BKN030 BKN055 BKN250 19/11 A3019 RMK AO2 SLP227 T01890111
KPIT 241551Z 00000KT 10SM SCT027 BKN055 OVC110 18/11 A3020 RMK AO2 SLP230 T01830111
KPIT 241451Z VRB03KT 10SM SCT025 SCT050 BKN110 17/11 A3019 RMK AO2 SLP228 T01720106 51002
KPIT 241351Z 09007KT 10SM SCT020 SCT050 SCT110 16/10 A3019 RMK AO2 SLP230 T01560100
KPIT 241251Z 08008KT 10SM FEW025 SCT100 SCT250 14/09 A3019 RMK AO2 SLP230 T01390094
KPIT 241151Z 07008KT 10SM SCT100 BKN250 12/09 A3019 RMK AO2 SLP228 70001 T01220089 10133 20100 53015
KPIT 241051Z 05005KT 10SM FEW100 BKN250 11/08 A3017 RMK AO2 SLP226 T01110083
KPIT 240951Z 06004KT 10SM FEW100 BKN250 11/08 A3015 RMK AO2 SLP218 T01060078